createdAt,value
2022-12-25T00:01:19.859Z,78.33
2022-12-25T00:04:06.837Z,78.04
2022-12-25T00:06:53.710Z,77.95
2022-12-25T00:09:40.473Z,77.91
2022-12-25T00:12:27.339Z,78.40
2022-12-25T00:15:14.093Z,78.04
2022-12-25T00:18:00.858Z,78.39
2022-12-25T00:21:02.601Z,77.90
2022-12-25T00:23:57.381Z,78.07
2022-12-25T00:26:44.208Z,78.40
2022-12-25T00:29:32.657Z,78.44
2022-12-25T00:32:19.502Z,78.02
2022-12-25T00:35:06.631Z,78.29
2022-12-25T00:37:53.394Z,78.22
2022-12-25T00:40:44.005Z,78.17
2022-12-25T00:43:30.853Z,78.20
2022-12-25T00:46:17.798Z,78.23
2022-12-25T00:49:04.871Z,78.58
2022-12-25T00:51:51.978Z,78.09
2022-12-25T00:54:38.874Z,78.13
2022-12-25T00:57:25.696Z,78.13
2022-12-25T01:00:13.118Z,78.21
2022-12-25T01:03:00.040Z,78.31
2022-12-25T01:05:58.541Z,78.53
2022-12-25T01:09:03.699Z,78.49
2022-12-25T01:11:50.528Z,78.29
2022-12-25T01:14:37.307Z,78.31
2022-12-25T01:17:24.402Z,78.42
2022-12-25T01:20:13.191Z,78.48
2022-12-25T01:22:59.975Z,78.32
2022-12-25T01:25:48.587Z,78.47
2022-12-25T01:28:36.012Z,78.66
2022-12-25T01:31:24.303Z,78.11
2022-12-25T01:34:11.193Z,78.53
2022-12-25T01:36:58.080Z,78.50
2022-12-25T01:39:44.887Z,78.65
2022-12-25T01:42:34.564Z,78.59
2022-12-25T01:45:39.014Z,78.57
2022-12-25T01:48:28.912Z,78.51
2022-12-25T01:51:43.702Z,78.54
2022-12-25T01:54:34.186Z,78.33
2022-12-25T01:57:27.577Z,78.56
2022-12-25T02:00:16.269Z,78.46
2022-12-25T02:03:03.590Z,78.68
2022-12-25T02:05:50.971Z,78.63
2022-12-25T02:08:38.015Z,78.51
2022-12-25T02:11:43.572Z,78.22
2022-12-25T02:14:32.768Z,78.57
2022-12-25T02:17:28.849Z,78.55
2022-12-25T02:20:47.243Z,78.56
2022-12-25T02:24:05.122Z,78.52
2022-12-25T02:26:54.796Z,78.69
2022-12-25T02:29:52.295Z,78.66
2022-12-25T02:32:49.712Z,78.68
2022-12-25T02:35:36.769Z,78.53
2022-12-25T02:39:00.797Z,78.83
2022-12-25T02:41:49.054Z,78.82
2022-12-25T02:44:57.540Z,79.13
2022-12-25T02:48:03.020Z,78.53
2022-12-25T02:51:08.891Z,78.51
2022-12-25T02:54:15.550Z,78.69
2022-12-25T02:57:25.006Z,78.72
2022-12-25T03:00:30.921Z,78.98
2022-12-25T03:03:36.931Z,78.62
2022-12-25T03:06:44.259Z,79.11
2022-12-25T03:09:54.306Z,79.16
2022-12-25T03:12:50.049Z,78.95
2022-12-25T03:16:01.540Z,78.80
2022-12-25T03:18:48.311Z,79.12
2022-12-25T03:21:58.189Z,78.76
2022-12-25T03:25:03.556Z,78.98
2022-12-25T03:27:51.742Z,78.97
2022-12-25T03:31:02.055Z,79.18
2022-12-25T03:34:23.560Z,79.17
2022-12-25T03:37:32.035Z,79.03
2022-12-25T03:40:47.634Z,78.81
2022-12-25T03:43:59.658Z,78.81
2022-12-25T03:47:09.847Z,79.10
2022-12-25T03:50:39.733Z,79.06
2022-12-25T03:53:48.318Z,79.05
2022-12-25T03:56:54.322Z,79.28
2022-12-25T03:59:59.807Z,79.16
2022-12-25T04:03:05.214Z,78.94
2022-12-25T04:06:10.316Z,78.99
2022-12-25T04:09:15.687Z,79.25
2022-12-25T04:12:21.068Z,79.24
2022-12-25T04:15:30.202Z,78.91
2022-12-25T04:18:35.546Z,79.16
2022-12-25T04:21:40.797Z,79.10
2022-12-25T04:24:46.295Z,79.01
2022-12-25T04:27:52.003Z,79.35
2022-12-25T04:30:57.564Z,79.17
2022-12-25T04:34:23.019Z,79.01
2022-12-25T04:37:09.881Z,79.40
2022-12-25T04:39:56.670Z,79.04
2022-12-25T04:42:43.598Z,79.25
2022-12-25T04:45:30.507Z,79.37
2022-12-25T04:48:17.364Z,79.08
2022-12-25T04:51:24.781Z,78.97
2022-12-25T04:54:11.599Z,79.05
2022-12-25T04:56:58.438Z,79.08
2022-12-25T04:59:47.312Z,79.10
2022-12-25T05:02:34.378Z,79.19
2022-12-25T05:05:21.299Z,79.02
2022-12-25T05:08:08.426Z,79.20
2022-12-25T05:10:55.216Z,79.37
2022-12-25T05:13:42.256Z,79.00
2022-12-25T05:16:29.337Z,79.10
2022-12-25T05:19:19.345Z,79.10
2022-12-25T05:22:08.413Z,79.21
2022-12-25T05:24:55.230Z,79.09
2022-12-25T05:27:42.019Z,79.41
2022-12-25T05:30:28.808Z,79.01
2022-12-25T05:33:15.669Z,79.27
2022-12-25T05:36:07.163Z,79.46
2022-12-25T05:38:53.934Z,79.21
2022-12-25T05:41:40.744Z,79.03
2022-12-25T05:44:28.465Z,79.05
2022-12-25T05:47:15.373Z,79.09
2022-12-25T05:50:02.645Z,79.12
2022-12-25T05:52:49.524Z,79.00
2022-12-25T05:55:37.954Z,79.40
2022-12-25T05:58:24.776Z,79.26
2022-12-25T06:01:20.072Z,79.35
2022-12-25T06:04:12.162Z,79.27
2022-12-25T06:06:59.593Z,79.14
2022-12-25T06:09:46.516Z,79.12
2022-12-25T06:12:33.359Z,79.23
2022-12-25T06:15:20.246Z,79.39
2022-12-25T06:18:07.253Z,79.35
2022-12-25T06:20:56.873Z,79.28
2022-12-25T06:23:44.424Z,79.38
2022-12-25T06:26:31.282Z,79.22
2022-12-25T06:29:18.128Z,79.41
2022-12-25T06:32:05.048Z,79.25
2022-12-25T06:34:52.005Z,79.29
2022-12-25T06:37:38.886Z,79.36
2022-12-25T06:40:25.692Z,79.62
2022-12-25T06:43:12.482Z,79.43
2022-12-25T06:46:07.327Z,79.41
2022-12-25T06:48:54.420Z,79.37
2022-12-25T06:51:44.346Z,79.37
2022-12-25T06:54:31.141Z,79.58
2022-12-25T06:57:18.950Z,79.48
2022-12-25T07:00:06.734Z,79.42
2022-12-25T07:02:53.606Z,79.52
2022-12-25T07:05:40.548Z,79.62
2022-12-25T07:08:27.584Z,79.29
2022-12-25T07:11:16.441Z,79.66
2022-12-25T07:14:03.358Z,79.25
2022-12-25T07:16:53.349Z,79.60
2022-12-25T07:19:45.185Z,79.52
2022-12-25T07:22:32.481Z,79.55
2022-12-25T07:25:19.282Z,79.56
2022-12-25T07:28:06.143Z,79.46
2022-12-25T07:30:53.385Z,79.48
2022-12-25T07:33:42.841Z,79.68
2022-12-25T07:36:30.562Z,79.41
2022-12-25T07:39:17.477Z,79.48
2022-12-25T07:42:04.322Z,79.61
2022-12-25T07:44:51.216Z,79.75
2022-12-25T07:47:38.032Z,79.49
2022-12-25T07:50:24.895Z,79.94
2022-12-25T07:53:11.683Z,79.91
2022-12-25T07:56:06.148Z,79.53
2022-12-25T07:58:58.461Z,79.75
2022-12-25T08:01:45.468Z,79.31
2022-12-25T08:04:32.386Z,79.52
2022-12-25T08:07:19.171Z,79.59
2022-12-25T08:10:09.258Z,79.62
2022-12-25T08:12:56.425Z,79.41
2022-12-25T08:15:43.264Z,79.59
2022-12-25T08:18:33.308Z,79.44
2022-12-25T08:21:20.156Z,79.64
2022-12-25T08:24:07.090Z,80.14
2022-12-25T08:26:53.914Z,79.23
2022-12-25T08:29:40.931Z,79.78
2022-12-25T08:32:27.680Z,79.37
2022-12-25T08:35:14.615Z,79.61
2022-12-25T08:38:01.749Z,79.59
2022-12-25T08:40:48.507Z,79.83
2022-12-25T08:43:35.287Z,79.46
2022-12-25T08:46:22.162Z,79.60
2022-12-25T08:49:09.225Z,79.91
2022-12-25T08:51:56.080Z,79.65
2022-12-25T08:54:42.894Z,79.80
2022-12-25T08:57:29.714Z,79.78
2022-12-25T09:00:16.837Z,79.71
2022-12-25T09:03:04.092Z,79.68
2022-12-25T09:05:51.752Z,80.00
2022-12-25T09:08:48.510Z,79.91
2022-12-25T09:11:36.222Z,79.79
2022-12-25T09:14:25.352Z,79.86
2022-12-25T09:17:12.147Z,79.91
2022-12-25T09:19:59.374Z,79.76
2022-12-25T09:22:46.256Z,79.71
2022-12-25T09:25:33.043Z,79.95
2022-12-25T09:28:21.107Z,80.18
2022-12-25T09:31:09.958Z,79.93
2022-12-25T09:34:00.633Z,79.79
2022-12-25T09:36:47.414Z,80.21
2022-12-25T09:39:38.187Z,80.32
2022-12-25T09:42:31.216Z,80.24
2022-12-25T09:45:39.774Z,80.16
2022-12-25T09:48:30.994Z,80.40
2022-12-25T09:51:18.531Z,80.40
2022-12-25T09:54:12.730Z,80.63
2022-12-25T09:57:00.683Z,80.62
2022-12-25T09:59:52.434Z,80.66
2022-12-25T10:03:10.030Z,80.90
2022-12-25T10:06:21.009Z,80.91
2022-12-25T10:09:23.038Z,81.09
2022-12-25T10:12:47.531Z,81.05
2022-12-25T10:15:45.551Z,81.03
2022-12-25T10:19:10.235Z,80.81
2022-12-25T10:22:02.274Z,81.04
2022-12-25T10:24:51.170Z,81.00
2022-12-25T10:28:00.772Z,80.59
2022-12-25T10:30:48.905Z,80.88
2022-12-25T10:33:35.713Z,80.51
2022-12-25T10:36:25.223Z,80.63
2022-12-25T10:39:26.552Z,80.58
2022-12-25T10:42:43.199Z,80.45
2022-12-25T10:45:30.408Z,80.27
2022-12-25T10:48:27.178Z,80.17
2022-12-25T10:51:14.686Z,80.20
2022-12-25T10:54:23.392Z,80.42
2022-12-25T10:57:12.622Z,80.36
2022-12-25T11:00:00.437Z,80.31
2022-12-25T11:02:47.509Z,80.64
2022-12-25T11:05:36.827Z,80.53
2022-12-25T11:08:48.446Z,80.84
2022-12-25T11:11:38.159Z,81.02
2022-12-25T11:14:25.478Z,80.81
2022-12-25T11:17:25.057Z,80.88
2022-12-25T11:20:19.694Z,81.32
2022-12-25T11:23:12.805Z,81.38
2022-12-25T11:26:02.083Z,81.32
2022-12-25T11:28:53.008Z,81.36
2022-12-25T11:31:59.669Z,81.40
2022-12-25T11:34:49.612Z,81.11
2022-12-25T11:37:54.713Z,81.33
2022-12-25T11:40:47.980Z,80.79
2022-12-25T11:43:56.468Z,81.03
2022-12-25T11:46:46.040Z,80.92
2022-12-25T11:49:50.967Z,81.07
2022-12-25T11:52:43.797Z,80.84
2022-12-25T11:55:54.860Z,81.14
2022-12-25T11:58:52.636Z,81.11
2022-12-25T12:01:54.816Z,81.09
2022-12-25T12:04:50.217Z,81.24
2022-12-25T12:07:43.478Z,81.28
2022-12-25T12:10:53.029Z,81.27
2022-12-25T12:14:09.254Z,81.07
2022-12-25T12:16:56.252Z,81.27
2022-12-25T12:19:46.283Z,81.16
2022-12-25T12:22:34.636Z,81.10
2022-12-25T12:25:37.961Z,81.20
2022-12-25T12:28:27.494Z,81.02
2022-12-25T12:31:18.949Z,81.35
2022-12-25T12:34:06.320Z,81.10
2022-12-25T12:37:04.098Z,80.94
2022-12-25T12:39:55.126Z,81.27
2022-12-25T12:42:50.710Z,80.92
2022-12-25T12:45:39.322Z,80.87
2022-12-25T12:48:30.493Z,80.74
2022-12-25T12:51:30.101Z,80.78
2022-12-25T12:54:25.628Z,80.57
2022-12-25T12:57:25.294Z,80.51
2022-12-25T13:00:15.991Z,80.43
2022-12-25T13:03:15.708Z,80.29
2022-12-25T13:06:11.675Z,80.36
2022-12-25T13:09:16.358Z,80.41
2022-12-25T13:12:08.184Z,80.41
2022-12-25T13:14:55.231Z,80.19
2022-12-25T13:17:46.379Z,80.29
2022-12-25T13:21:06.046Z,80.34
2022-12-25T13:24:09.029Z,80.61
2022-12-25T13:27:01.875Z,80.68
2022-12-25T13:29:48.778Z,80.46
2022-12-25T13:35:50.803Z,80.04
2022-12-25T13:38:46.518Z,80.41
2022-12-25T13:42:03.944Z,80.21
2022-12-25T13:44:56.104Z,80.18
2022-12-25T13:47:43.422Z,80.00
2022-12-25T13:50:32.480Z,80.40
2022-12-25T13:53:19.335Z,80.22
2022-12-25T13:56:06.181Z,80.20
2022-12-25T13:58:53.040Z,80.28
2022-12-25T14:01:43.119Z,79.97
2022-12-25T14:04:30.164Z,80.27
2022-12-25T14:07:24.114Z,80.12
2022-12-25T14:10:12.538Z,80.32
2022-12-25T14:13:04.212Z,80.22
2022-12-25T14:15:53.802Z,79.85
2022-12-25T14:19:00.406Z,79.89
2022-12-25T14:21:57.647Z,80.04
2022-12-25T14:24:48.491Z,80.25
2022-12-25T14:27:36.403Z,79.90
2022-12-25T14:30:25.084Z,79.82
2022-12-25T14:33:21.086Z,79.70
2022-12-25T14:36:18.645Z,80.14
2022-12-25T14:39:07.500Z,80.40
2022-12-25T14:41:54.546Z,80.11
2022-12-25T14:44:41.563Z,80.10
2022-12-25T14:47:34.095Z,80.16
2022-12-25T14:50:36.355Z,80.03
2022-12-25T14:53:30.229Z,80.03
2022-12-25T14:56:21.434Z,79.72
2022-12-25T14:59:20.171Z,79.83
2022-12-25T15:02:18.715Z,80.11
2022-12-25T15:05:33.979Z,79.81
2022-12-25T15:08:22.217Z,79.76
2022-12-25T15:11:09.140Z,79.90
2022-12-25T15:13:56.589Z,80.03
2022-12-25T15:16:51.798Z,79.97
2022-12-25T15:19:39.161Z,79.91
2022-12-25T15:22:37.449Z,79.70
2022-12-25T15:25:36.756Z,79.87
2022-12-25T15:28:30.960Z,79.89
2022-12-25T15:31:29.474Z,80.02
2022-12-25T15:34:20.346Z,80.02
2022-12-25T15:37:07.215Z,79.39
2022-12-25T15:39:59.538Z,79.79
2022-12-25T15:42:50.897Z,79.84
2022-12-25T15:45:38.254Z,79.84
2022-12-25T15:48:26.618Z,79.85
2022-12-25T15:51:13.450Z,79.49
2022-12-25T15:54:00.269Z,79.46
2022-12-25T15:56:49.736Z,79.57
2022-12-25T15:59:36.534Z,79.29
2022-12-25T16:02:23.473Z,79.53
2022-12-25T16:05:12.810Z,79.87
2022-12-25T16:07:59.597Z,79.41
2022-12-25T16:10:46.722Z,79.51
2022-12-25T16:13:33.789Z,79.06
2022-12-25T16:16:20.654Z,79.01
2022-12-25T16:19:07.575Z,79.20
2022-12-25T16:21:54.465Z,79.60
2022-12-25T16:24:42.151Z,79.48
2022-12-25T16:27:28.916Z,79.28
2022-12-25T16:30:17.585Z,79.24
2022-12-25T16:33:05.004Z,79.18
2022-12-25T16:35:55.062Z,79.32
2022-12-25T16:38:42.200Z,79.20
2022-12-25T16:41:32.305Z,78.96
2022-12-25T16:44:19.210Z,78.74
2022-12-25T16:47:06.397Z,78.79
2022-12-25T16:49:56.168Z,78.91
2022-12-25T16:52:42.979Z,78.90
2022-12-25T16:55:30.454Z,79.04
2022-12-25T16:58:20.475Z,79.01
2022-12-25T17:01:08.847Z,79.00
2022-12-25T17:03:58.895Z,78.25
2022-12-25T17:06:45.709Z,78.69
2022-12-25T17:09:32.480Z,78.61
2022-12-25T17:12:19.260Z,78.75
2022-12-25T17:15:07.860Z,78.87
2022-12-25T17:17:54.636Z,78.31
2022-12-25T17:20:49.853Z,78.54
2022-12-25T17:23:38.156Z,78.89
2022-12-25T17:26:25.111Z,78.79
2022-12-25T17:29:14.768Z,78.43
2022-12-25T17:32:06.671Z,78.83
2022-12-25T17:34:53.695Z,78.57
2022-12-25T17:37:42.005Z,78.60
2022-12-25T17:40:32.093Z,78.39
2022-12-25T17:43:20.964Z,78.65
2022-12-25T17:46:08.824Z,78.71
2022-12-25T17:48:57.046Z,78.02
2022-12-25T17:51:46.728Z,78.76
2022-12-25T17:54:42.706Z,78.82
2022-12-25T17:57:36.759Z,78.38
2022-12-25T18:00:26.639Z,78.71
2022-12-25T18:03:13.924Z,78.37
2022-12-25T18:06:07.951Z,78.45
2022-12-25T18:08:56.233Z,78.34
2022-12-25T18:11:49.371Z,78.58
2022-12-25T18:14:40.061Z,78.76
2022-12-25T18:17:35.613Z,78.46
2022-12-25T18:20:27.474Z,78.32
2022-12-25T18:23:16.701Z,78.50
2022-12-25T18:26:11.888Z,78.22
2022-12-25T18:29:07.549Z,78.40
2022-12-25T18:32:00.277Z,78.29
2022-12-25T18:34:54.543Z,78.36
2022-12-25T18:37:41.423Z,78.40
2022-12-25T18:40:28.337Z,78.57
2022-12-25T18:43:21.098Z,78.78
2022-12-25T18:46:28.170Z,78.31
2022-12-25T18:49:15.390Z,78.15
2022-12-25T18:52:48.670Z,78.52
2022-12-25T18:55:10.391Z,78.70
2022-12-25T18:58:05.049Z,78.30
2022-12-25T19:00:55.017Z,78.25
2022-12-25T19:03:46.558Z,78.60
2022-12-25T19:06:33.763Z,78.04
2022-12-25T19:09:28.321Z,78.58
2022-12-25T19:12:22.504Z,78.58
2022-12-25T19:15:12.298Z,78.22
2022-12-25T19:18:04.557Z,77.99
2022-12-25T19:20:54.516Z,78.34
2022-12-25T19:23:44.612Z,78.44
2022-12-25T19:26:31.412Z,78.29
2022-12-25T19:29:23.415Z,78.20
2022-12-25T19:32:10.360Z,78.21
2022-12-25T19:35:04.397Z,78.32
2022-12-25T19:37:53.534Z,78.20
2022-12-25T19:40:42.613Z,78.09
2022-12-25T19:43:30.914Z,77.92
2022-12-25T19:46:22.253Z,78.28
2022-12-25T19:49:13.593Z,78.04
2022-12-25T19:52:01.941Z,78.13
2022-12-25T19:54:53.345Z,77.80
2022-12-25T19:57:45.671Z,78.08
2022-12-25T20:00:35.319Z,78.46
2022-12-25T20:03:24.469Z,78.39
2022-12-25T20:06:14.758Z,77.93
2022-12-25T20:09:07.126Z,78.01
2022-12-25T20:12:04.282Z,78.20
2022-12-25T20:14:59.390Z,78.10
2022-12-25T20:17:49.745Z,78.08
2022-12-25T20:20:36.673Z,78.18
2022-12-25T20:23:23.456Z,78.18
2022-12-25T20:26:14.766Z,78.13
2022-12-25T20:29:01.685Z,78.17
2022-12-25T20:31:57.811Z,78.63
2022-12-25T20:34:45.071Z,78.31
2022-12-25T20:37:32.401Z,78.25
2022-12-25T20:40:19.318Z,78.19
2022-12-25T20:43:06.306Z,78.41
2022-12-25T20:45:53.335Z,78.45
2022-12-25T20:48:40.383Z,78.07
2022-12-25T20:51:27.499Z,78.16
2022-12-25T20:54:15.023Z,78.21
2022-12-25T20:57:02.094Z,78.15
2022-12-25T20:59:49.145Z,78.30
2022-12-25T21:02:37.294Z,78.07
2022-12-25T21:05:24.296Z,78.48
2022-12-25T21:08:11.057Z,78.26
2022-12-25T21:11:02.581Z,78.18
2022-12-25T21:13:49.783Z,78.30
2022-12-25T21:16:38.211Z,78.39
2022-12-25T21:19:30.491Z,78.41
2022-12-25T21:22:17.392Z,78.51
2022-12-25T21:25:04.426Z,78.14
2022-12-25T21:27:54.254Z,78.72
2022-12-25T21:30:41.466Z,78.29
2022-12-25T21:36:57.075Z,78.34
2022-12-25T21:39:43.855Z,78.49
2022-12-25T21:42:30.741Z,78.39
2022-12-25T21:45:19.904Z,78.31
2022-12-25T21:48:06.548Z,78.27
2022-12-25T21:51:11.952Z,78.04
2022-12-25T21:53:59.417Z,78.24
2022-12-25T21:56:47.971Z,78.33
2022-12-25T21:59:34.829Z,78.33
2022-12-25T22:02:24.863Z,78.51
2022-12-25T22:05:31.825Z,78.44
2022-12-25T22:08:27.650Z,78.29
2022-12-25T22:11:33.197Z,78.52
2022-12-25T22:14:52.443Z,78.43
2022-12-25T22:18:01.397Z,78.47
2022-12-25T22:20:48.238Z,78.67
2022-12-25T22:23:35.011Z,78.32
2022-12-25T22:26:21.876Z,78.39
2022-12-25T22:29:08.700Z,78.36
2022-12-25T22:31:55.542Z,78.32
2022-12-25T22:34:42.673Z,78.42
2022-12-25T22:37:29.506Z,78.67
2022-12-25T22:40:20.383Z,78.65
2022-12-25T22:43:07.166Z,78.68
2022-12-25T22:46:00.011Z,78.41
2022-12-25T22:48:46.940Z,78.66
2022-12-25T22:51:34.043Z,78.51
2022-12-25T22:54:23.760Z,78.32
2022-12-25T22:57:10.704Z,79.01
2022-12-25T22:59:57.547Z,78.27
2022-12-25T23:02:46.777Z,78.37
2022-12-25T23:05:33.823Z,78.27
2022-12-25T23:08:20.927Z,78.69
2022-12-25T23:11:07.826Z,78.49
2022-12-25T23:14:13.300Z,78.32
2022-12-25T23:17:00.080Z,78.66
2022-12-25T23:20:05.681Z,78.53
2022-12-25T23:23:11.219Z,78.53
2022-12-25T23:26:10.392Z,78.61
2022-12-25T23:29:15.976Z,78.39
2022-12-25T23:32:11.317Z,78.48
2022-12-25T23:34:58.199Z,78.05
2022-12-25T23:37:45.180Z,78.51
2022-12-25T23:40:31.959Z,78.51
2022-12-25T23:43:18.808Z,78.34
2022-12-25T23:46:08.182Z,78.78
2022-12-25T23:48:55.227Z,78.57
2022-12-25T23:51:44.098Z,78.49
2022-12-25T23:54:31.973Z,78.38
2022-12-25T23:57:18.924Z,78.70
